Time;durP1;ratioP1;P1;durP2;ratioP2;P2;SDS_P1;SDS_P2;PMS_P1;PMS_P2;Temp;Humidity;BMP_temperature;BMP_pressure;BME280_temperature;BME280_humidity;BME280_pressure;Samples;Min_cycle;Max_cycle;Signal;HPM_P1;HPM_P2
2021/09/16 00:00:17;;;;;;;11.30;7.40;;;;;;;17.49;100.00;95792.00;1036460;28;20060;-73
2021/09/16 00:00:47;;;;;;;14.07;7.93;;;;;;;17.48;100.00;95799.31;1032688;28;20057;-73
2021/09/16 00:01:18;;;;;;;13.47;7.33;;;;;;;17.49;100.00;95792.00;1032226;28;20030;-73
2021/09/16 00:01:48;;;;;;;16.07;7.70;;;;;;;17.48;100.00;95799.31;1032516;28;20209;-73
2021/09/16 00:02:19;;;;;;;13.77;7.60;;;;;;;17.49;100.00;95797.41;1032551;28;20019;-72
2021/09/16 00:02:49;;;;;;;12.77;8.27;;;;;;;17.49;100.00;95792.81;1036573;28;20029;-73
2021/09/16 00:03:20;;;;;;;13.43;8.03;;;;;;;17.51;100.00;95797.91;1036465;28;20033;-72
2021/09/16 00:03:50;;;;;;;14.80;7.73;;;;;;;17.49;100.00;95798.22;1037481;28;20463;-72
2021/09/16 00:04:20;;;;;;;19.67;10.40;;;;;;;17.49;100.00;95800.13;1036518;28;20022;-72
2021/09/16 00:04:51;;;;;;;11.93;7.20;;;;;;;17.42;100.00;95795.19;1032512;28;20108;-72
2021/09/16 00:05:21;;;;;;;17.63;8.10;;;;;;;17.44;100.00;95797.56;1040622;28;20060;-72
2021/09/16 00:05:52;;;;;;;11.73;8.57;;;;;;;17.46;100.00;95788.06;1036390;28;20034;-72
2021/09/16 00:06:22;;;;;;;16.43;9.77;;;;;;;17.47;100.00;95795.03;1036465;28;20018;-72
2021/09/16 00:06:53;;;;;;;19.93;9.60;;;;;;;17.49;100.00;95789.31;1036509;28;20463;-72
2021/09/16 00:07:23;;;;;;;17.20;9.90;;;;;;;17.48;100.00;95793.91;1036624;28;20029;-72
2021/09/16 00:07:53;;;;;;;16.23;9.63;;;;;;;17.49;100.00;95795.50;1040495;28;20057;-72
2021/09/16 00:08:24;;;;;;;16.13;9.37;;;;;;;17.49;100.00;95789.31;1040623;28;20022;-71
2021/09/16 00:08:54;;;;;;;15.23;9.20;;;;;;;17.49;100.00;95792.81;1040816;28;20029;-72
2021/09/16 00:09:25;;;;;;;16.23;9.70;;;;;;;17.50;100.00;95797.09;1043613;28;20033;-72
2021/09/16 00:09:55;;;;;;;14.50;9.53;;;;;;;17.52;100.00;95794.88;1040542;28;20033;-72
2021/09/16 00:10:26;;;;;;;19.37;9.73;;;;;;;17.51;100.00;95797.91;1040616;28;20017;-72
2021/09/16 00:10:56;;;;;;;15.67;9.23;;;;;;;17.49;100.00;95798.22;1036430;28;20463;-72
2021/09/16 00:11:26;;;;;;;14.83;8.73;;;;;;;17.49;100.00;95792.81;1036463;28;20438;-72
2021/09/16 00:11:57;;;;;;;16.27;9.70;;;;;;;17.50;100.00;95799.00;1040560;28;20382;-72
2021/09/16 00:12:27;;;;;;;13.60;9.80;;;;;;;17.51;100.00;95800.63;1040596;28;20371;-72
2021/09/16 00:12:58;;;;;;;21.50;10.10;;;;;;;17.51;100.00;95800.63;1040561;28;20445;-72
2021/09/16 00:13:28;;;;;;;14.37;9.23;;;;;;;17.48;100.00;95799.31;1044437;28;20036;-73
2021/09/16 00:13:58;;;;;;;16.13;8.80;;;;;;;17.49;100.00;95798.22;1042306;28;20053;-73
2021/09/16 00:14:29;;;;;;;15.57;9.17;;;;;;;17.49;100.00;95797.41;1040565;28;20525;-73
2021/09/16 00:14:59;;;;;;;18.73;9.93;;;;;;;17.47;100.00;95805.06;1040926;28;20478;-72
2021/09/16 00:15:30;;;;;;;15.53;9.23;;;;;;;17.45;100.00;95805.34;1040837;28;20505;-73
2021/09/16 00:16:00;;;;;;;19.10;9.57;;;;;;;17.47;100.00;95805.84;1044603;28;20128;-73
2021/09/16 00:16:31;;;;;;;12.17;8.53;;;;;;;17.47;100.00;95803.16;1040473;28;20080;-73
2021/09/16 00:17:01;;;;;;;15.63;8.60;;;;;;;17.46;100.00;95806.97;1032264;28;20403;-73
2021/09/16 00:17:31;;;;;;;14.30;8.40;;;;;;;17.44;100.00;95798.38;1033128;28;20551;-73
2021/09/16 00:18:02;;;;;;;14.60;8.27;;;;;;;17.46;100.00;95801.56;1032392;28;20015;-73
2021/09/16 00:18:32;;;;;;;11.53;7.23;;;;;;;17.46;100.00;95800.78;1032518;28;20057;-73
2021/09/16 00:19:03;;;;;;;12.20;7.97;;;;;;;17.45;100.00;95799.94;1040574;28;20076;-73
2021/09/16 00:19:33;;;;;;;15.97;8.47;;;;;;;17.43;100.00;95799.47;1032329;28;20026;-73
2021/09/16 00:20:04;;;;;;;13.87;8.13;;;;;;;17.46;100.00;95798.88;1032437;28;20022;-73
2021/09/16 00:20:35;;;;;;;14.80;8.43;;;;;;;17.45;100.00;95794.53;1036222;28;20049;-73
2021/09/16 00:21:05;;;;;;;12.67;7.50;;;;;;;17.46;100.00;95798.88;1032551;28;20034;-73
2021/09/16 00:21:36;;;;;;;13.40;7.60;;;;;;;17.44;100.00;95805.69;1036580;28;20033;-73
2021/09/16 00:22:06;;;;;;;12.40;7.63;;;;;;;17.44;100.00;95798.38;1040498;28;20090;-73
2021/09/16 00:22:36;;;;;;;14.53;7.57;;;;;;;17.43;100.00;95802.19;1036627;28;20070;-73
2021/09/16 00:23:07;;;;;;;18.40;7.80;;;;;;;17.46;100.00;95803.47;1036408;28;20033;-73
2021/09/16 00:23:37;;;;;;;18.83;8.57;;;;;;;17.45;100.00;95802.66;1033824;28;20114;-73
2021/09/16 00:24:08;;;;;;;14.97;7.70;;;;;;;17.43;100.00;95796.78;1033329;28;20085;-72
2021/09/16 00:24:38;;;;;;;14.80;7.77;;;;;;;17.42;100.00;95809.50;1036471;28;20026;-72
2021/09/16 00:25:09;;;;;;;14.93;8.03;;;;;;;17.43;100.00;95796.78;1040595;28;20025;-72
2021/09/16 00:25:39;;;;;;;20.90;7.53;;;;;;;17.41;100.00;95801.72;1040877;28;20018;-72
2021/09/16 00:26:10;;;;;;;15.10;8.23;;;;;;;17.42;100.00;95803.31;1041166;28;20435;-72
2021/09/16 00:26:40;;;;;;;14.47;8.77;;;;;;;17.46;100.00;95800.78;1043495;28;20386;-73
2021/09/16 00:27:11;;;;;;;14.47;7.77;;;;;;;17.46;100.00;95808.88;1040464;28;20461;-72
2021/09/16 00:27:41;;;;;;;12.30;7.90;;;;;;;17.45;100.00;95802.66;1036199;28;20087;-72
2021/09/16 00:28:11;;;;;;;19.20;7.60;;;;;;;17.45;100.00;95797.25;1039835;28;20496;-72
2021/09/16 00:28:42;;;;;;;15.57;7.73;;;;;;;17.42;100.00;95800.59;1036389;28;20498;-72
2021/09/16 00:29:14;;;;;;;11.00;7.07;;;;;;;17.41;100.00;95801.72;1036449;28;20041;-72
2021/09/16 00:29:44;;;;;;;13.30;7.25;;;;;;;17.37;100.00;95800.75;1040546;28;20072;-72
2021/09/16 00:30:15;;;;;;;13.93;7.57;;;;;;;17.34;100.00;95793.28;1040835;28;20107;-72
2021/09/16 00:30:45;;;;;;;15.97;7.53;;;;;;;17.38;100.00;95799.66;1040773;28;20368;-72
2021/09/16 00:31:15;;;;;;;13.23;7.80;;;;;;;17.42;100.00;95800.59;1040893;28;20544;-72
2021/09/16 00:31:46;;;;;;;12.27;7.17;;;;;;;17.43;100.00;95796.78;1040790;28;20021;-72
2021/09/16 00:32:16;;;;;;;12.63;7.47;;;;;;;17.40;100.00;95797.41;1040771;28;20390;-73
2021/09/16 00:32:47;;;;;;;15.60;7.53;;;;;;;17.39;100.00;95795.81;1040410;28;20471;-73
2021/09/16 00:33:17;;;;;;;11.87;7.57;;;;;;;17.41;100.00;95799.03;1036924;28;20040;-72
2021/09/16 00:33:47;;;;;;;12.07;7.13;;;;;;;17.41;100.00;95796.31;1036285;28;20382;-72
2021/09/16 00:34:18;;;;;;;12.70;6.97;;;;;;;17.40;100.00;95790.13;1031998;28;20467;-72
2021/09/16 00:34:48;;;;;;;16.93;7.57;;;;;;;17.37;100.00;95793.44;1028394;28;20014;-73
2021/09/16 00:35:19;;;;;;;14.63;7.63;;;;;;;17.36;100.00;95791.06;1035254;28;20053;-73
2021/09/16 00:35:49;;;;;;;13.20;6.70;;;;;;;17.30;100.00;95785.03;1032312;28;20030;-73
2021/09/16 00:36:19;;;;;;;11.03;7.53;;;;;;;17.33;100.00;95789.00;1036321;28;20041;-72
2021/09/16 00:36:50;;;;;;;12.90;7.57;;;;;;;17.33;100.00;95789.78;1032216;28;20023;-73
2021/09/16 00:37:20;;;;;;;16.23;7.07;;;;;;;17.30;100.00;95790.44;1032377;28;20297;-73
2021/09/16 00:37:51;;;;;;;13.13;6.70;;;;;;;17.28;100.00;95781.84;1032299;28;20026;-73
2021/09/16 00:38:21;;;;;;;11.43;6.80;;;;;;;17.25;100.00;95787.91;1028218;28;20354;-73
2021/09/16 00:38:52;;;;;;;11.70;6.90;;;;;;;17.28;100.00;95784.53;1035715;28;20430;-72
2021/09/16 00:39:22;;;;;;;13.67;7.03;;;;;;;17.30;100.00;95778.81;1031966;28;20031;-72
2021/09/16 00:39:52;;;;;;;9.53;6.77;;;;;;;17.29;100.00;95788.81;1028319;28;20035;-72
2021/09/16 00:40:23;;;;;;;11.10;7.03;;;;;;;17.33;100.00;95784.38;1039740;28;20033;-72
2021/09/16 00:40:53;;;;;;;11.27;7.40;;;;;;;17.33;100.00;95784.38;1040480;28;20113;-72
2021/09/16 00:41:28;;;;;;;11.20;7.33;;;;;;;17.35;100.00;95784.88;1039463;28;20021;-72
2021/09/16 00:41:58;;;;;;;15.00;7.93;;;;;;;17.35;100.00;95784.88;1043815;28;20160;-72
2021/09/16 00:42:29;;;;;;;13.13;7.53;;;;;;;17.39;100.00;95790.41;1042967;28;20044;-72
2021/09/16 00:42:59;;;;;;;15.53;7.93;;;;;;;17.40;100.00;95790.13;1040965;28;20040;-72
2021/09/16 00:43:30;;;;;;;10.67;7.43;;;;;;;17.40;100.00;95786.59;1044577;28;20037;-72
2021/09/16 00:44:00;;;;;;;12.33;7.10;;;;;;;17.28;100.00;95784.53;1041328;28;20412;-72
2021/09/16 00:44:31;;;;;;;11.37;6.87;;;;;;;17.32;100.00;95782.00;1036315;28;20030;-72
2021/09/16 00:45:01;;;;;;;11.20;7.37;;;;;;;17.29;100.00;95783.44;1028139;28;20034;-72
2021/09/16 00:45:31;;;;;;;13.90;6.80;;;;;;;17.35;100.00;95792.16;1024313;28;20098;-72
2021/09/16 00:46:03;;;;;;;12.33;7.30;;;;;;;17.36;100.00;95785.69;1028366;28;20496;-73
2021/09/16 00:46:34;;;;;;;12.43;6.90;;;;;;;17.36;100.00;95783.75;1028567;28;20086;-72
2021/09/16 00:47:04;;;;;;;12.80;6.77;;;;;;;17.38;100.00;95786.13;1032578;28;20022;-72
2021/09/16 00:47:35;;;;;;;12.00;6.93;;;;;;;17.38;100.00;95788.84;1036498;28;20049;-72
2021/09/16 00:51:57;;;;;;;19.48;9.80;;;;;;;17.28;100.00;95786.44;1020728;29;20046;-66
2021/09/16 00:52:27;;;;;;;18.40;11.17;;;;;;;17.31;100.00;95789.31;1020442;29;20028;-66
2021/09/16 00:52:58;;;;;;;15.93;10.07;;;;;;;17.35;100.00;95792.16;1020205;29;20020;-66
2021/09/16 00:53:47;;;;;;;16.13;9.68;;;;;;;17.34;100.00;95783.25;1020380;29;20043;-66
2021/09/16 00:54:18;;;;;;;16.87;9.23;;;;;;;17.37;100.00;95792.66;1014806;29;20013;-67
2021/09/16 00:54:48;;;;;;;16.25;9.32;;;;;;;17.36;100.00;95791.06;1012559;29;20036;-66
2021/09/16 00:55:19;;;;;;;15.33;8.90;;;;;;;17.36;100.00;95783.75;1008742;29;20108;-66
2021/09/16 00:55:50;;;;;;;13.20;8.63;;;;;;;17.36;100.00;95789.16;1009052;29;20549;-66
2021/09/16 00:56:20;;;;;;;16.43;9.80;;;;;;;17.37;100.00;95787.25;1016555;29;20084;-66
2021/09/16 00:57:10;;;;;;;13.70;8.63;;;;;;;17.34;100.00;95785.97;1015664;29;20065;-66
2021/09/16 00:57:52;;;;;;;13.57;8.52;;;;;;;17.34;100.00;95794.06;1019793;29;20059;-66
2021/09/16 00:58:23;;;;;;;14.45;8.40;;;;;;;17.33;100.00;95795.19;1016124;29;20036;-66
2021/09/16 00:58:54;;;;;;;19.08;9.23;;;;;;;17.34;100.00;95790.59;1024042;29;20416;-66
2021/09/16 00:59:24;;;;;;;13.03;7.97;;;;;;;17.32;100.00;95782.81;1024381;29;20027;-66
2021/09/16 01:00:14;;;;;;;15.55;8.65;;;;;;;17.29;100.00;95790.75;1023738;29;20094;-67
2021/09/16 01:00:46;;;;;;;13.00;7.80;;;;;;;17.30;100.00;95784.22;1024306;29;20023;-66
2021/09/16 01:01:34;;;;;;;13.80;8.02;;;;;;;17.27;100.00;95785.66;1024539;29;20158;-66
2021/09/16 01:02:23;;;;;;;15.13;7.43;;;;;;;17.27;100.00;95790.28;1024630;29;20806;-66
2021/09/16 01:03:12;;;;;;;11.65;7.15;;;;;;;17.27;100.00;95784.88;1024559;29;20122;-66
2021/09/16 01:04:01;;;;;;;15.02;7.00;;;;;;;17.28;100.00;95781.06;1020637;29;20113;-66
2021/09/16 01:04:50;;;;;;;12.65;7.97;;;;;;;17.28;100.00;95786.44;1023609;29;20050;-66
2021/09/16 01:05:39;;;;;;;11.95;7.13;;;;;;;17.25;100.00;95790.59;1024404;29;20038;-66
2021/09/16 01:06:28;;;;;;;11.73;6.95;;;;;;;17.22;100.00;95782.31;1024596;29;20436;-67
2021/09/16 01:06:58;;;;;;;13.30;7.63;;;;;;;17.17;100.00;95785.19;1024606;28;20016;-66
2021/09/16 01:07:30;;;;;;;14.77;7.63;;;;;;;17.17;100.00;95795.97;1024048;28;20015;-67
2021/09/16 01:08:19;;;;;;;14.73;7.10;;;;;;;17.18;100.00;95784.84;1023855;29;20525;-66
2021/09/16 01:09:10;;;;;;;14.00;6.95;;;;;;;17.18;100.00;95792.16;1024268;29;20041;-66
2021/09/16 01:09:59;;;;;;;12.63;7.22;;;;;;;17.14;100.00;95787.38;1024320;29;20132;-66
2021/09/16 01:10:30;;;;;;;14.60;7.25;;;;;;;17.15;100.00;95791.69;1024198;29;20027;-66
2021/09/16 01:11:20;;;;;;;12.40;7.25;;;;;;;17.12;100.00;95792.31;1019978;29;20559;-66
2021/09/16 01:12:09;;;;;;;15.85;7.00;;;;;;;17.13;100.00;95790.41;1019978;29;20103;-66
2021/09/16 01:12:58;;;;;;;21.83;7.63;;;;;;;17.13;100.00;95793.91;1019857;29;20171;-66
2021/09/16 01:13:28;;;;;;;15.13;7.30;;;;;;;17.15;100.00;95793.59;1021302;29;20485;-66
2021/09/16 01:14:23;;;;;;;11.73;7.03;;;;;;;17.14;100.00;95790.09;1024219;29;20143;-66
2021/09/16 01:15:13;;;;;;;13.95;7.35;;;;;;;17.12;100.00;95800.41;1024276;29;20090;-66
2021/09/16 01:16:02;;;;;;;15.02;7.80;;;;;;;17.11;100.00;95795.34;1024228;29;20094;-66
2021/09/16 01:16:32;;;;;;;12.67;7.97;;;;;;;17.13;100.00;95795.81;1023789;28;20468;-66
2021/09/16 01:17:03;;;;;;;13.17;7.80;;;;;;;17.13;100.00;95795.81;1024151;28;20102;-66
2021/09/16 01:17:53;;;;;;;12.05;7.38;;;;;;;17.10;100.00;95794.56;1024062;29;20126;-66
2021/09/16 01:18:23;;;;;;;15.87;7.50;;;;;;;17.13;100.00;95799.31;1024067;28;20028;-66
2021/09/16 01:18:53;;;;;;;12.53;7.27;;;;;;;17.14;100.00;95792.00;1023996;28;20031;-66
2021/09/16 01:19:24;;;;;;;11.70;6.60;;;;;;;17.17;100.00;95799.47;1024146;28;20090;-66
2021/09/16 01:20:13;;;;;;;11.98;7.53;;;;;;;17.11;100.00;95795.34;1023853;29;20443;-66
2021/09/16 01:20:44;;;;;;;14.90;7.93;;;;;;;17.12;100.00;95797.72;1023670;28;20012;-66
2021/09/16 01:21:33;;;;;;;12.15;7.18;;;;;;;17.10;100.00;95802.66;1024317;29;20034;-66
2021/09/16 01:22:04;;;;;;;12.30;7.60;;;;;;;17.13;100.00;95802.00;1023880;28;20027;-66
2021/09/16 01:22:52;;;;;;;14.00;7.85;;;;;;;17.13;100.00;95803.91;1024141;29;20026;-66
2021/09/16 01:23:23;;;;;;;12.90;7.33;;;;;;;17.12;100.00;95797.72;1024096;29;20384;-66
2021/09/16 01:24:12;;;;;;;13.13;7.57;;;;;;;17.10;100.00;95797.25;1020268;29;20095;-67
2021/09/16 01:25:01;;;;;;;11.35;7.88;;;;;;;17.12;100.00;95800.41;1020278;29;20115;-67
2021/09/16 01:25:50;;;;;;;12.07;7.88;;;;;;;17.11;100.00;95798.84;1020586;29;20459;-66
2021/09/16 01:26:21;;;;;;;12.90;7.67;;;;;;;17.14;100.00;95795.50;1022814;29;20101;-67
2021/09/16 01:27:10;;;;;;;13.40;7.68;;;;;;;17.13;100.00;95796.59;1023545;29;20108;-67
2021/09/16 01:27:40;;;;;;;14.27;8.03;;;;;;;17.13;100.00;95803.91;1023654;29;20144;-66
2021/09/16 01:28:29;;;;;;;15.65;7.85;;;;;;;17.12;100.00;95795.03;1024153;29;20054;-66
2021/09/16 01:29:00;;;;;;;14.40;7.47;;;;;;;17.14;100.00;95800.88;1023652;29;20019;-66
2021/09/16 01:29:30;;;;;;;14.30;7.73;;;;;;;17.13;100.00;95793.91;1023653;29;20035;-66
2021/09/16 01:30:03;;;;;;;15.13;8.23;;;;;;;17.15;100.00;95799.81;1023765;29;20027;-67
2021/09/16 01:30:52;;;;;;;15.40;7.65;;;;;;;17.13;100.00;95793.91;1024007;29;20034;-67
2021/09/16 01:31:43;;;;;;;14.32;8.02;;;;;;;17.14;100.00;95803.59;1023830;29;20074;-68
2021/09/16 01:32:32;;;;;;;14.27;7.05;;;;;;;17.11;100.00;95796.13;1020113;29;20609;-66
2021/09/16 01:33:02;;;;;;;13.60;7.87;;;;;;;17.12;100.00;95792.31;1019739;29;20024;-67
2021/09/16 01:33:33;;;;;;;12.77;8.03;;;;;;;17.14;100.00;95794.69;1019751;29;20020;-69
2021/09/16 01:34:04;;;;;;;16.53;8.20;;;;;;;17.11;100.00;95793.44;1022304;29;20028;-66
2021/09/16 01:34:53;;;;;;;14.27;7.40;;;;;;;17.08;100.00;95787.88;1024017;29;20082;-66
2021/09/16 01:35:24;;;;;;;15.20;7.90;;;;;;;17.07;100.00;95797.88;1023395;29;20011;-66
2021/09/16 01:35:54;;;;;;;16.53;7.90;;;;;;;17.06;100.00;95796.28;1023640;29;20011;-66
2021/09/16 01:36:45;;;;;;;15.35;7.72;;;;;;;17.05;100.00;95792.00;1023680;29;20051;-66
2021/09/16 01:37:34;;;;;;;11.73;7.22;;;;;;;17.05;100.00;95791.22;1024159;29;20436;-68
2021/09/16 01:38:04;;;;;;;13.47;7.93;;;;;;;17.05;100.00;95794.72;1023938;29;20070;-66
2021/09/16 01:38:34;;;;;;;14.70;7.20;;;;;;;17.03;100.00;95790.72;1024160;29;20035;-66
2021/09/16 01:39:06;;;;;;;13.27;7.90;;;;;;;16.99;100.00;95790.53;1019635;29;20020;-68
2021/09/16 01:39:37;;;;;;;12.95;7.55;;;;;;;16.99;100.00;95787.84;1019719;29;20055;-66
2021/09/16 01:40:26;;;;;;;13.95;7.90;;;;;;;17.02;100.00;95794.53;1023683;29;20031;-66
2021/09/16 01:41:15;;;;;;;14.00;8.35;;;;;;;17.03;100.00;95788.81;1020071;29;20114;-66
2021/09/16 01:42:04;;;;;;;10.68;7.40;;;;;;;17.05;100.00;95792.00;1023031;29;20066;-66
2021/09/16 01:42:35;;;;;;;11.32;7.57;;;;;;;17.04;100.00;95790.38;1023667;29;20015;-66
2021/09/16 01:43:05;;;;;;;12.50;7.27;;;;;;;17.06;100.00;95792.78;1024251;29;20026;-66
2021/09/16 01:43:36;;;;;;;9.47;6.70;;;;;;;17.09;100.00;95784.03;1024360;29;20019;-66
2021/09/16 01:44:06;;;;;;;11.70;7.50;;;;;;;17.10;100.00;95788.34;1024058;29;20404;-66
2021/09/16 01:44:36;;;;;;;14.37;7.30;;;;;;;17.09;100.00;95781.34;1023735;29;20027;-66
2021/09/16 01:45:27;;;;;;;14.73;7.70;;;;;;;17.07;100.00;95786.28;1023626;28;20031;-66
2021/09/16 01:45:57;;;;;;;12.43;7.55;;;;;;;17.09;100.00;95784.03;1023463;28;20043;-66
2021/09/16 01:46:47;;;;;;;13.80;8.02;;;;;;;17.10;100.00;95789.16;1024202;29;20149;-66
2021/09/16 01:47:36;;;;;;;11.95;6.97;;;;;;;17.09;100.00;95784.84;1024051;29;20086;-66
2021/09/16 01:48:06;;;;;;;13.90;7.57;;;;;;;17.05;100.00;95783.91;1020364;29;20024;-67
2021/09/16 01:48:37;;;;;;;9.37;6.57;;;;;;;17.06;100.00;95779.28;1019769;29;20019;-66
2021/09/16 01:49:07;;;;;;;13.17;7.73;;;;;;;17.06;100.00;95782.78;1019774;29;20015;-67
2021/09/16 01:49:56;;;;;;;18.45;8.45;;;;;;;17.10;100.00;95785.66;1022406;29;20536;-67
2021/09/16 01:50:48;;;;;;;13.88;7.13;;;;;;;17.08;100.00;95780.56;1023421;29;20122;-67
2021/09/16 01:51:18;;;;;;;11.63;6.97;;;;;;;17.04;100.00;95782.28;1020126;29;20038;-67
2021/09/16 01:52:07;;;;;;;11.90;7.15;;;;;;;17.01;100.00;95784.84;1027442;28;20137;-67
2021/09/16 01:52:56;;;;;;;11.55;7.40;;;;;;;17.04;100.00;95784.19;1027420;28;20089;-67
2021/09/16 01:53:26;;;;;;;11.20;7.43;;;;;;;17.04;100.00;95782.28;1027498;28;20019;-67
2021/09/16 01:53:57;;;;;;;14.47;7.73;;;;;;;17.07;100.00;95775.47;1027437;28;20019;-67
2021/09/16 01:54:28;;;;;;;12.50;7.70;;;;;;;17.08;100.00;95777.06;1027581;28;20026;-67
2021/09/16 01:54:58;;;;;;;14.37;7.83;;;;;;;17.07;100.00;95781.66;1027828;28;20262;-67
2021/09/16 01:55:47;;;;;;;16.95;8.05;;;;;;;17.09;100.00;95781.34;1027200;28;20037;-67
2021/09/16 01:56:36;;;;;;;12.27;7.70;;;;;;;17.06;100.00;95777.38;1027674;28;20101;-67
2021/09/16 01:57:06;;;;;;;10.73;7.80;;;;;;;17.09;100.00;95784.03;1027273;28;20770;-67
2021/09/16 01:57:37;;;;;;;12.80;7.83;;;;;;;17.09;100.00;95782.13;1027942;28;20023;-66
2021/09/16 01:58:07;;;;;;;13.40;8.00;;;;;;;17.09;100.00;95781.34;1027733;28;20038;-67
2021/09/16 01:58:38;;;;;;;14.60;8.87;;;;;;;17.09;100.00;95781.34;1027597;28;20022;-67
2021/09/16 01:59:26;;;;;;;13.48;8.60;;;;;;;17.06;100.00;95777.38;1023993;29;20114;-66
2021/09/16 02:00:16;;;;;;;13.23;7.82;;;;;;;17.05;100.00;95780.41;1024184;28;20082;-67
2021/09/16 02:00:46;;;;;;;10.53;7.30;;;;;;;17.06;100.00;95774.69;1027673;28;20022;-67
2021/09/16 02:01:35;;;;;;;12.38;7.32;;;;;;;17.04;100.00;95785.00;1027570;28;20544;-66
2021/09/16 02:02:24;;;;;;;12.18;8.15;;;;;;;17.05;100.00;95786.59;1027410;28;20455;-67
2021/09/16 02:02:55;;;;;;;13.87;8.13;;;;;;;17.07;100.00;95783.59;1027523;28;20109;-66
2021/09/16 02:03:44;;;;;;;13.38;8.32;;;;;;;17.05;100.00;95786.59;1028137;28;20113;-67
2021/09/16 02:04:33;;;;;;;15.10;7.88;;;;;;;17.04;100.00;95785.00;1028044;28;20042;-67
2021/09/16 02:05:03;;;;;;;12.40;7.97;;;;;;;17.05;100.00;95783.91;1027652;28;20026;-67
2021/09/16 02:05:34;;;;;;;13.70;8.63;;;;;;;17.06;100.00;95790.88;1027333;28;20026;-67
2021/09/16 02:06:04;;;;;;;12.80;8.73;;;;;;;17.09;100.00;95786.75;1027090;28;20058;-67
2021/09/16 02:06:35;;;;;;;13.30;9.20;;;;;;;17.09;100.00;95789.44;1027355;28;20093;-67
2021/09/16 02:07:24;;;;;;;12.48;7.80;;;;;;;17.07;100.00;95783.59;1027525;28;20038;-66
2021/09/16 02:08:13;;;;;;;13.02;8.07;;;;;;;17.08;100.00;95787.88;1027791;28;20081;-66
2021/09/16 02:09:02;;;;;;;10.88;7.50;;;;;;;17.07;100.00;95784.38;1023690;29;20575;-67
2021/09/16 02:09:51;;;;;;;15.63;8.50;;;;;;;17.08;100.00;95791.34;1024079;29;20126;-66
2021/09/16 02:10:21;;;;;;;17.37;8.87;;;;;;;17.09;100.00;95787.53;1023714;28;20468;-66
2021/09/16 02:10:52;;;;;;;11.40;8.50;;;;;;;17.09;100.00;95784.84;1025196;28;20031;-66
2021/09/16 02:11:41;;;;;;;16.88;8.57;;;;;;;17.06;100.00;95785.50;1027699;28;20056;-67
2021/09/16 02:12:29;;;;;;;14.25;7.40;;;;;;;17.06;100.00;95780.09;1027801;28;20169;-66
2021/09/16 02:13:00;;;;;;;13.57;8.63;;;;;;;17.09;100.00;95781.34;1027601;28;20034;-66
2021/09/16 02:13:31;;;;;;;13.03;7.90;;;;;;;17.09;100.00;95775.94;1027287;28;20523;-66
2021/09/16 02:14:01;;;;;;;14.87;8.40;;;;;;;17.07;100.00;95776.28;1027299;28;20121;-67
2021/09/16 02:14:50;;;;;;;13.50;8.18;;;;;;;17.05;100.00;95775.81;1027032;28;20070;-67
2021/09/16 02:15:21;;;;;;;13.50;8.43;;;;;;;17.02;100.00;95783.72;1027586;28;20023;-67
2021/09/16 02:15:51;;;;;;;13.87;8.57;;;;;;;16.98;100.00;95775.47;1027711;28;20011;-66
2021/09/16 02:16:40;;;;;;;11.82;7.93;;;;;;;17.00;100.00;95777.88;1027455;28;20074;-66
2021/09/16 02:17:29;;;;;;;13.63;7.88;;;;;;;16.98;100.00;95777.38;1027417;28;20090;-66
2021/09/16 02:18:00;;;;;;;12.87;8.37;;;;;;;17.00;100.00;95780.56;1027513;28;20019;-66
2021/09/16 02:18:49;;;;;;;14.15;8.55;;;;;;;17.01;100.00;95777.53;1027613;28;20518;-67
2021/09/16 02:19:19;;;;;;;11.80;7.70;;;;;;;17.03;100.00;95775.31;1027610;28;20018;-67
2021/09/16 02:20:08;;;;;;;10.52;7.57;;;;;;;17.03;100.00;95785.31;1027354;28;20054;-66
2021/09/16 02:20:58;;;;;;;12.52;7.38;;;;;;;17.04;100.00;95776.09;1027825;28;20032;-67
2021/09/16 02:21:28;;;;;;;12.57;7.60;;;;;;;17.06;100.00;95784.69;1027292;28;20031;-67
2021/09/16 02:21:58;;;;;;;12.60;8.00;;;;;;;17.07;100.00;95781.66;1027487;28;20011;-66
2021/09/16 02:22:29;;;;;;;12.00;8.10;;;;;;;17.07;100.00;95787.06;1027628;28;20031;-67
2021/09/16 02:22:59;;;;;;;14.50;8.03;;;;;;;17.09;100.00;95774.03;1027663;28;20015;-66
2021/09/16 02:23:30;;;;;;;11.03;7.67;;;;;;;17.10;100.00;95780.25;1027428;28;20077;-68
2021/09/16 02:24:02;;;;;;;11.07;7.80;;;;;;;17.10;100.00;95775.66;1027598;28;20069;-66
2021/09/16 02:24:51;;;;;;;12.68;7.60;;;;;;;17.07;100.00;95776.28;1027759;28;20034;-67
2021/09/16 02:25:39;;;;;;;14.68;8.60;;;;;;;17.08;100.00;95783.25;1027603;28;20034;-67
2021/09/16 02:26:10;;;;;;;16.13;7.60;;;;;;;17.08;100.00;95768.97;1027916;28;20026;-67
2021/09/16 02:26:59;;;;;;;14.43;8.57;;;;;;;17.07;100.00;95776.28;1028015;28;20494;-66
2021/09/16 02:27:48;;;;;;;13.32;7.30;;;;;;;17.07;100.00;95772.78;1027421;28;20101;-66
2021/09/16 02:28:36;;;;;;;13.50;8.13;;;;;;;17.05;100.00;95773.09;1023660;29;20053;-66
2021/09/16 02:29:07;;;;;;;15.77;7.17;;;;;;;17.06;100.00;95763.88;1023418;28;20483;-66
2021/09/16 02:29:38;;;;;;;13.40;7.83;;;;;;;17.09;100.00;95767.84;1026089;28;20023;-67
2021/09/16 02:30:09;;;;;;;12.10;7.70;;;;;;;17.11;100.00;95771.03;1027568;28;20046;-67
2021/09/16 02:30:39;;;;;;;12.37;7.87;;;;;;;17.10;100.00;95767.56;1028090;28;20034;-67
2021/09/16 02:31:10;;;;;;;12.40;7.90;;;;;;;17.09;100.00;95767.84;1028099;28;20447;-66
2021/09/16 02:31:40;;;;;;;13.90;9.00;;;;;;;17.07;100.00;95772.78;1027085;28;20027;-66
2021/09/16 02:32:10;;;;;;;13.10;8.40;;;;;;;17.04;100.00;95763.41;1027622;28;20030;-66
2021/09/16 02:33:04;;;;;;;13.02;8.25;;;;;;;17.01;100.00;95760.56;1027695;28;20173;-66
2021/09/16 02:33:34;;;;;;;10.50;7.32;;;;;;;17.04;100.00;95763.41;1027744;28;20023;-67
2021/09/16 02:34:04;;;;;;;13.93;8.17;;;;;;;17.05;100.00;95764.22;1027963;28;20015;-67
2021/09/16 02:34:53;;;;;;;13.93;7.70;;;;;;;17.05;100.00;95762.31;1027780;28;20042;-67
2021/09/16 02:35:24;;;;;;;16.17;8.53;;;;;;;17.06;100.00;95761.19;1027693;28;20011;-67
2021/09/16 02:35:54;;;;;;;16.03;9.07;;;;;;;17.07;100.00;95760.06;1027233;28;20023;-67
2021/09/16 02:36:25;;;;;;;11.93;8.30;;;;;;;17.08;100.00;95756.25;1027161;28;20027;-67
2021/09/16 02:36:56;;;;;;;11.90;7.65;;;;;;;17.07;100.00;95757.38;1027439;28;20054;-67
2021/09/16 02:37:44;;;;;;;13.85;8.40;;;;;;;17.06;100.00;95758.50;1027512;28;20102;-67
2021/09/16 02:38:15;;;;;;;13.83;8.53;;;;;;;17.09;100.00;95757.06;1027645;28;20081;-67
2021/09/16 02:38:45;;;;;;;18.40;9.70;;;;;;;17.09;100.00;95755.13;1027727;28;20027;-67
2021/09/16 02:39:16;;;;;;;18.80;9.43;;;;;;;17.08;100.00;95747.38;1027558;28;20019;-66
2021/09/16 02:39:46;;;;;;;12.40;8.30;;;;;;;17.08;100.00;95755.47;1027421;28;20027;-67
2021/09/16 02:40:16;;;;;;;12.33;8.30;;;;;;;17.07;100.00;95751.19;1027684;28;20442;-66
2021/09/16 02:41:06;;;;;;;14.60;9.38;;;;;;;17.05;100.00;95751.50;1027718;28;20522;-66
2021/09/16 02:41:55;;;;;;;13.35;8.73;;;;;;;17.03;100.00;95748.31;1027274;28;20115;-67
2021/09/16 02:42:25;;;;;;;14.07;8.43;;;;;;;17.04;100.00;95751.81;1027304;28;20047;-67
2021/09/16 02:42:56;;;;;;;15.63;8.40;;;;;;;17.03;100.00;95748.31;1027522;28;20034;-66
2021/09/16 02:43:44;;;;;;;17.17;8.85;;;;;;;17.01;100.00;95752.47;1028117;28;20049;-66
2021/09/16 02:44:15;;;;;;;12.73;8.07;;;;;;;17.01;100.00;95755.94;1028038;28;20015;-67
2021/09/16 02:44:45;;;;;;;15.70;8.20;;;;;;;17.01;100.00;95753.25;1028081;28;20019;-66
2021/09/16 02:45:16;;;;;;;14.53;8.87;;;;;;;16.98;100.00;95759.25;1027780;28;20402;-67
2021/09/16 02:45:46;;;;;;;14.27;8.10;;;;;;;16.99;100.00;95757.34;1027619;28;20451;-67
2021/09/16 02:46:17;;;;;;;11.83;8.50;;;;;;;16.97;100.00;95754.19;1027256;28;20011;-66
2021/09/16 02:47:06;;;;;;;12.45;8.05;;;;;;;16.96;100.00;95750.69;1027307;28;20155;-67
2021/09/16 02:47:36;;;;;;;11.47;7.97;;;;;;;16.97;100.00;95765.00;1027105;28;20159;-66
2021/09/16 02:48:07;;;;;;;14.20;8.90;;;;;;;16.98;100.00;95763.88;1027488;28;20070;-67